sensor_id;sensor_type;location;lat;lon;timestamp;pressure;altitude;pressure_sealevel;temperature;humidity
6833;BME280;3454;42.654;23.378;2023-01-27T00:02:02;93634.38;;;2.04;100.00
6833;BME280;3454;42.654;23.378;2023-01-27T00:04:27;93637.94;;;2.12;100.00
6833;BME280;3454;42.654;23.378;2023-01-27T00:06:53;93626.84;;;2.04;100.00
6833;BME280;3454;42.654;23.378;2023-01-27T00:09:18;93584.50;;;1.88;100.00
6833;BME280;3454;42.654;23.378;2023-01-27T00:11:44;93607.22;;;1.98;100.00
6833;BME280;3454;42.654;23.378;2023-01-27T00:14:27;93608.81;;;1.99;100.00
6833;BME280;3454;42.654;23.378;2023-01-27T00:16:53;93605.75;;;1.83;100.00
6833;BME280;3454;42.654;23.378;2023-01-27T00:19:18;93598.09;;;1.97;100.00
6833;BME280;3454;42.654;23.378;2023-01-27T00:21:45;93606.38;;;2.10;100.00
6833;BME280;3454;42.654;23.378;2023-01-27T00:24:29;93588.34;;;2.05;100.00
6833;BME280;3454;42.654;23.378;2023-01-27T00:27:01;93605.19;;;2.26;100.00
6833;BME280;3454;42.654;23.378;2023-01-27T00:29:27;93608.78;;;2.11;100.00
6833;BME280;3454;42.654;23.378;2023-01-27T00:31:52;93581.38;;;1.97;100.00
6833;BME280;3454;42.654;23.378;2023-01-27T00:34:36;93594.59;;;1.99;100.00
6833;BME280;3454;42.654;23.378;2023-01-27T00:37:03;93577.94;;;1.98;100.00
6833;BME280;3454;42.654;23.378;2023-01-27T00:39:29;93572.88;;;1.87;100.00
6833;BME280;3454;42.654;23.378;2023-01-27T00:41:54;93572.88;;;1.87;100.00
6833;BME280;3454;42.654;23.378;2023-01-27T00:44:19;93571.06;;;1.89;100.00
6833;BME280;3454;42.654;23.378;2023-01-27T00:46:45;93603.97;;;2.08;100.00
6833;BME280;3454;42.654;23.378;2023-01-27T00:49:11;93612.97;;;2.11;100.00
6833;BME280;3454;42.654;23.378;2023-01-27T00:51:37;93618.38;;;2.17;100.00
6833;BME280;3454;42.654;23.378;2023-01-27T00:54:11;93592.66;;;2.03;100.00
6833;BME280;3454;42.654;23.378;2023-01-27T00:56:39;93628.81;;;2.11;100.00
6833;BME280;3454;42.654;23.378;2023-01-27T00:59:04;93618.00;;;2.11;100.00
6833;BME280;3454;42.654;23.378;2023-01-27T01:01:30;93619.47;;;2.26;100.00
6833;BME280;3454;42.654;23.378;2023-01-27T01:03:56;93607.34;;;2.20;100.00
6833;BME280;3454;42.654;23.378;2023-01-27T01:06:26;93574.75;;;1.96;100.00
6833;BME280;3454;42.654;23.378;2023-01-27T01:08:51;93562.47;;;2.04;100.00
6833;BME280;3454;42.654;23.378;2023-01-27T01:11:18;93572.88;;;2.11;100.00
6833;BME280;3454;42.654;23.378;2023-01-27T01:13:46;93575.25;;;2.01;100.00
6833;BME280;3454;42.654;23.378;2023-01-27T01:16:17;93586.91;;;2.13;100.00
6833;BME280;3454;42.654;23.378;2023-01-27T01:18:44;93566.38;;;1.85;100.00
6833;BME280;3454;42.654;23.378;2023-01-27T01:21:11;93552.59;;;1.66;100.00
6833;BME280;3454;42.654;23.378;2023-01-27T01:23:38;93562.63;;;1.66;100.00
6833;BME280;3454;42.654;23.378;2023-01-27T01:26:05;93533.53;;;1.40;100.00
6833;BME280;3454;42.654;23.378;2023-01-27T01:28:31;93561.91;;;1.77;100.00
6833;BME280;3454;42.654;23.378;2023-01-27T01:31:03;93557.34;;;1.82;100.00
6833;BME280;3454;42.654;23.378;2023-01-27T01:33:29;93572.19;;;1.85;100.00
6833;BME280;3454;42.654;23.378;2023-01-27T01:35:54;93592.34;;;2.07;100.00
6833;BME280;3454;42.654;23.378;2023-01-27T01:38:19;93624.78;;;2.21;100.00
6833;BME280;3454;42.654;23.378;2023-01-27T01:40:45;93633.69;;;2.25;100.00
6833;BME280;3454;42.654;23.378;2023-01-27T01:43:15;93624.63;;;2.12;100.00
6833;BME280;3454;42.654;23.378;2023-01-27T01:45:46;93581.63;;;1.82;100.00
6833;BME280;3454;42.654;23.378;2023-01-27T01:50:54;93574.00;;;1.83;100.00
6833;BME280;3454;42.654;23.378;2023-01-27T01:53:22;93554.97;;;1.81;100.00
6833;BME280;3454;42.654;23.378;2023-01-27T01:55:54;93560.47;;;1.86;100.00
6833;BME280;3454;42.654;23.378;2023-01-27T01:58:20;93578.13;;;2.08;100.00
6833;BME280;3454;42.654;23.378;2023-01-27T02:00:46;93588.41;;;2.16;100.00
6833;BME280;3454;42.654;23.378;2023-01-27T02:03:11;93551.34;;;1.85;100.00
6833;BME280;3454;42.654;23.378;2023-01-27T02:05:42;93547.72;;;1.89;100.00
6833;BME280;3454;42.654;23.378;2023-01-27T02:08:14;93535.09;;;1.90;100.00
6833;BME280;3454;42.654;23.378;2023-01-27T02:10:41;93527.94;;;1.97;100.00
6833;BME280;3454;42.654;23.378;2023-01-27T02:13:07;93523.00;;;2.08;100.00
6833;BME280;3454;42.654;23.378;2023-01-27T02:15:33;93536.47;;;2.18;100.00
6833;BME280;3454;42.654;23.378;2023-01-27T02:17:59;93526.41;;;2.07;100.00
6833;BME280;3454;42.654;23.378;2023-01-27T02:23:16;93510.97;;;1.29;100.00
6833;BME280;3454;42.654;23.378;2023-01-27T02:25:48;93520.47;;;1.24;100.00
6833;BME280;3454;42.654;23.378;2023-01-27T02:28:15;93511.81;;;1.41;100.00
6833;BME280;3454;42.654;23.378;2023-01-27T02:30:40;93521.97;;;1.63;100.00
6833;BME280;3454;42.654;23.378;2023-01-27T02:33:11;93516.75;;;1.66;100.00
6833;BME280;3454;42.654;23.378;2023-01-27T02:35:53;93517.19;;;1.84;100.00
6833;BME280;3454;42.654;23.378;2023-01-27T02:38:23;93517.34;;;1.93;100.00
6833;BME280;3454;42.654;23.378;2023-01-27T02:40:53;93524.00;;;2.05;100.00
6833;BME280;3454;42.654;23.378;2023-01-27T02:43:19;93525.00;;;2.03;100.00
6833;BME280;3454;42.654;23.378;2023-01-27T02:45:46;93504.97;;;1.79;100.00
6833;BME280;3454;42.654;23.378;2023-01-27T02:48:12;93533.38;;;1.91;100.00
6833;BME280;3454;42.654;23.378;2023-01-27T02:50:37;93540.16;;;1.78;100.00
6833;BME280;3454;42.654;23.378;2023-01-27T02:53:03;93516.84;;;1.64;100.00
6833;BME280;3454;42.654;23.378;2023-01-27T02:55:28;93550.38;;;1.75;100.00
6833;BME280;3454;42.654;23.378;2023-01-27T02:57:54;93540.31;;;1.63;100.00
6833;BME280;3454;42.654;23.378;2023-01-27T03:00:19;93522.94;;;1.37;100.00
6833;BME280;3454;42.654;23.378;2023-01-27T03:02:45;93520.66;;;1.21;100.00
6833;BME280;3454;42.654;23.378;2023-01-27T03:05:11;93510.81;;;0.82;100.00
6833;BME280;3454;42.654;23.378;2023-01-27T03:07:37;93522.78;;;0.77;100.00
6833;BME280;3454;42.654;23.378;2023-01-27T03:10:02;93526.81;;;0.92;100.00
6833;BME280;3454;42.654;23.378;2023-01-27T03:12:28;93513.66;;;1.26;100.00
6833;BME280;3454;42.654;23.378;2023-01-27T03:14:53;93521.25;;;1.37;100.00
6833;BME280;3454;42.654;23.378;2023-01-27T03:17:37;93507.78;;;1.51;100.00
6833;BME280;3454;42.654;23.378;2023-01-27T03:20:22;93492.00;;;1.38;100.00
6833;BME280;3454;42.654;23.378;2023-01-27T03:22:48;93497.28;;;1.46;100.00
6833;BME280;3454;42.654;23.378;2023-01-27T03:25:14;93498.44;;;1.29;100.00
6833;BME280;3454;42.654;23.378;2023-01-27T03:27:40;93490.53;;;1.23;100.00
6833;BME280;3454;42.654;23.378;2023-01-27T03:30:06;93480.28;;;1.02;100.00
6833;BME280;3454;42.654;23.378;2023-01-27T03:32:33;93478.00;;;1.35;100.00
6833;BME280;3454;42.654;23.378;2023-01-27T03:34:59;93470.94;;;1.17;100.00
6833;BME280;3454;42.654;23.378;2023-01-27T03:37:32;93459.63;;;1.11;100.00
6833;BME280;3454;42.654;23.378;2023-01-27T03:40:16;93453.34;;;0.93;100.00
6833;BME280;3454;42.654;23.378;2023-01-27T03:43:00;93454.00;;;0.84;100.00
6833;BME280;3454;42.654;23.378;2023-01-27T03:45:49;93444.31;;;0.54;100.00
6833;BME280;3454;42.654;23.378;2023-01-27T03:48:41;93453.13;;;0.60;100.00
6833;BME280;3454;42.654;23.378;2023-01-27T03:51:08;93463.50;;;0.54;100.00
6833;BME280;3454;42.654;23.378;2023-01-27T03:53:34;93462.59;;;0.67;100.00
6833;BME280;3454;42.654;23.378;2023-01-27T03:56:01;93465.59;;;0.47;100.00
6833;BME280;3454;42.654;23.378;2023-01-27T03:58:32;93458.59;;;0.65;100.00
6833;BME280;3454;42.654;23.378;2023-01-27T04:01:00;93452.06;;;0.88;100.00
6833;BME280;3454;42.654;23.378;2023-01-27T04:03:29;93461.47;;;0.97;100.00
6833;BME280;3454;42.654;23.378;2023-01-27T04:06:16;93496.28;;;1.00;100.00
6833;BME280;3454;42.654;23.378;2023-01-27T04:09:00;93507.72;;;1.27;100.00
6833;BME280;3454;42.654;23.378;2023-01-27T04:11:26;93518.06;;;1.35;100.00
6833;BME280;3454;42.654;23.378;2023-01-27T04:14:11;93530.00;;;1.55;100.00
6833;BME280;3454;42.654;23.378;2023-01-27T04:16:37;93528.28;;;1.07;100.00
6833;BME280;3454;42.654;23.378;2023-01-27T04:19:04;93530.66;;;1.21;100.00
6833;BME280;3454;42.654;23.378;2023-01-27T04:21:31;93529.88;;;1.33;100.00
6833;BME280;3454;42.654;23.378;2023-01-27T04:23:56;93514.25;;;1.17;100.00
6833;BME280;3454;42.654;23.378;2023-01-27T04:26:22;93521.66;;;1.31;100.00
6833;BME280;3454;42.654;23.378;2023-01-27T04:28:50;93530.78;;;1.07;100.00
6833;BME280;3454;42.654;23.378;2023-01-27T04:31:16;93541.69;;;1.06;100.00
6833;BME280;3454;42.654;23.378;2023-01-27T04:33:43;93546.59;;;1.08;100.00
6833;BME280;3454;42.654;23.378;2023-01-27T04:36:12;93535.72;;;1.09;100.00
6833;BME280;3454;42.654;23.378;2023-01-27T04:38:38;93539.50;;;1.27;100.00
6833;BME280;3454;42.654;23.378;2023-01-27T04:41:03;93547.88;;;1.26;100.00
6833;BME280;3454;42.654;23.378;2023-01-27T04:43:29;93550.47;;;1.37;100.00
6833;BME280;3454;42.654;23.378;2023-01-27T04:45:54;93500.28;;;0.90;100.00
6833;BME280;3454;42.654;23.378;2023-01-27T04:48:20;93539.31;;;1.05;100.00
6833;BME280;3454;42.654;23.378;2023-01-27T04:50:45;93531.06;;;1.28;100.00
6833;BME280;3454;42.654;23.378;2023-01-27T04:53:11;93549.25;;;1.42;100.00
6833;BME280;3454;42.654;23.378;2023-01-27T04:55:36;93549.44;;;1.52;100.00
6833;BME280;3454;42.654;23.378;2023-01-27T04:58:03;93550.38;;;1.75;100.00
6833;BME280;3454;42.654;23.378;2023-01-27T05:00:29;93552.47;;;1.81;100.00
6833;BME280;3454;42.654;23.378;2023-01-27T05:02:54;93567.88;;;1.87;100.00
6833;BME280;3454;42.654;23.378;2023-01-27T05:05:20;93562.34;;;1.95;100.00
6833;BME280;3454;42.654;23.378;2023-01-27T05:07:45;93551.75;;;1.79;100.00
6833;BME280;3454;42.654;23.378;2023-01-27T05:10:11;93530.28;;;1.63;100.00
6833;BME280;3454;42.654;23.378;2023-01-27T05:12:36;93554.50;;;1.76;100.00
6833;BME280;3454;42.654;23.378;2023-01-27T05:15:02;93550.50;;;1.73;100.00
6833;BME280;3454;42.654;23.378;2023-01-27T05:17:32;93549.63;;;1.61;100.00
6833;BME280;3454;42.654;23.378;2023-01-27T05:19:59;93547.22;;;1.60;100.00
6833;BME280;3454;42.654;23.378;2023-01-27T05:22:25;93544.84;;;1.46;100.00
6833;BME280;3454;42.654;23.378;2023-01-27T05:24:50;93527.72;;;1.52;100.00
6833;BME280;3454;42.654;23.378;2023-01-27T05:27:16;93529.22;;;1.42;100.00
6833;BME280;3454;42.654;23.378;2023-01-27T05:29:42;93525.00;;;1.55;100.00
6833;BME280;3454;42.654;23.378;2023-01-27T05:32:08;93505.34;;;1.62;100.00
6833;BME280;3454;42.654;23.378;2023-01-27T05:34:33;93526.75;;;4.03;100.00
6833;BME280;3454;42.654;23.378;2023-01-27T05:36:59;93530.66;;;5.80;100.00
6833;BME280;3454;42.654;23.378;2023-01-27T05:39:24;93525.13;;;4.65;100.00
6833;BME280;3454;42.654;23.378;2023-01-27T05:41:50;93502.34;;;3.94;100.00
6833;BME280;3454;42.654;23.378;2023-01-27T05:44:15;93547.75;;;3.48;100.00
6833;BME280;3454;42.654;23.378;2023-01-27T05:46:41;93538.28;;;3.07;100.00
6833;BME280;3454;42.654;23.378;2023-01-27T05:49:06;93536.78;;;2.83;100.00
6833;BME280;3454;42.654;23.378;2023-01-27T05:51:37;93521.94;;;2.34;100.00
6833;BME280;3454;42.654;23.378;2023-01-27T05:54:04;93525.00;;;2.03;100.00
6833;BME280;3454;42.654;23.378;2023-01-27T05:56:30;93530.16;;;1.78;100.00
6833;BME280;3454;42.654;23.378;2023-01-27T05:58:56;93528.00;;;1.84;100.00
6833;BME280;3454;42.654;23.378;2023-01-27T06:01:40;93538.84;;;1.48;100.00
6833;BME280;3454;42.654;23.378;2023-01-27T06:04:05;93535.25;;;1.76;100.00
6833;BME280;3454;42.654;23.378;2023-01-27T06:06:32;93533.13;;;1.46;100.00
6833;BME280;3454;42.654;23.378;2023-01-27T06:08:58;93527.38;;;1.69;100.00
6833;BME280;3454;42.654;23.378;2023-01-27T06:11:24;93527.63;;;1.78;100.00
6833;BME280;3454;42.654;23.378;2023-01-27T06:13:51;93523.34;;;1.67;100.00
6833;BME280;3454;42.654;23.378;2023-01-27T06:16:18;93533.41;;;1.54;100.00
6833;BME280;3454;42.654;23.378;2023-01-27T06:18:44;93526.63;;;1.44;100.00
6833;BME280;3454;42.654;23.378;2023-01-27T06:21:11;93537.59;;;1.54;100.00
6833;BME280;3454;42.654;23.378;2023-01-27T06:23:38;93496.72;;;1.66;100.00
6833;BME280;3454;42.654;23.378;2023-01-27T06:26:09;93550.78;;;1.68;100.00
6833;BME280;3454;42.654;23.378;2023-01-27T06:28:36;93519.75;;;1.35;100.00
6833;BME280;3454;42.654;23.378;2023-01-27T06:31:06;93531.63;;;1.44;100.00
6833;BME280;3454;42.654;23.378;2023-01-27T06:33:32;93536.56;;;1.33;100.00
6833;BME280;3454;42.654;23.378;2023-01-27T06:36:03;93527.38;;;1.21;100.00
6833;BME280;3454;42.654;23.378;2023-01-27T06:38:29;93534.19;;;1.19;100.00
6833;BME280;3454;42.654;23.378;2023-01-27T06:40:54;93537.22;;;0.99;100.00
6833;BME280;3454;42.654;23.378;2023-01-27T06:43:20;93540.13;;;0.93;100.00
6833;BME280;3454;42.654;23.378;2023-01-27T06:45:49;93540.91;;;0.80;100.00
6833;BME280;3454;42.654;23.378;2023-01-27T06:48:14;93546.72;;;0.68;100.00
6833;BME280;3454;42.654;23.378;2023-01-27T06:50:40;93550.50;;;0.74;100.00
6833;BME280;3454;42.654;23.378;2023-01-27T06:53:05;93557.00;;;0.64;100.00
6833;BME280;3454;42.654;23.378;2023-01-27T06:55:32;93558.59;;;0.52;100.00
6833;BME280;3454;42.654;23.378;2023-01-27T06:57:58;93496.88;;;0.28;100.00
6833;BME280;3454;42.654;23.378;2023-01-27T07:00:25;93568.72;;;0.89;100.00
6833;BME280;3454;42.654;23.378;2023-01-27T07:02:54;93573.44;;;0.80;100.00
6833;BME280;3454;42.654;23.378;2023-01-27T07:05:20;93567.31;;;0.72;100.00
6833;BME280;3454;42.654;23.378;2023-01-27T07:07:46;93581.72;;;0.81;100.00
6833;BME280;3454;42.654;23.378;2023-01-27T07:10:11;93580.84;;;0.95;100.00
6833;BME280;3454;42.654;23.378;2023-01-27T07:12:36;93562.09;;;0.75;100.00
6833;BME280;3454;42.654;23.378;2023-01-27T07:15:06;93572.41;;;0.83;100.00
6833;BME280;3454;42.654;23.378;2023-01-27T07:17:32;93566.13;;;0.90;100.00
6833;BME280;3454;42.654;23.378;2023-01-27T07:19:58;93561.69;;;0.56;100.00
6833;BME280;3454;42.654;23.378;2023-01-27T07:22:23;93547.28;;;0.59;100.00
6833;BME280;3454;42.654;23.378;2023-01-27T07:24:49;93554.00;;;0.59;100.00
6833;BME280;3454;42.654;23.378;2023-01-27T07:27:14;93546.09;;;0.52;100.00
6833;BME280;3454;42.654;23.378;2023-01-27T07:29:40;93562.81;;;0.64;100.00
6833;BME280;3454;42.654;23.378;2023-01-27T07:32:06;93558.91;;;0.60;100.00
6833;BME280;3454;42.654;23.378;2023-01-27T07:34:32;93560.50;;;0.74;100.00
6833;BME280;3454;42.654;23.378;2023-01-27T07:36:57;93558.91;;;0.73;100.00
6833;BME280;3454;42.654;23.378;2023-01-27T07:39:23;93562.91;;;1.26;100.00
6833;BME280;3454;42.654;23.378;2023-01-27T07:41:51;93572.31;;;0.97;100.00
6833;BME280;3454;42.654;23.378;2023-01-27T07:44:16;93570.72;;;0.83;100.00
6833;BME280;3454;42.654;23.378;2023-01-27T07:46:42;93571.72;;;0.81;100.00
6833;BME280;3454;42.654;23.378;2023-01-27T07:49:08;93565.31;;;0.90;100.00
6833;BME280;3454;42.654;23.378;2023-01-27T07:51:35;93561.81;;;1.05;100.00
6833;BME280;3454;42.654;23.378;2023-01-27T07:54:00;93575.72;;;1.09;100.00
6833;BME280;3454;42.654;23.378;2023-01-27T07:56:26;93558.31;;;0.82;100.00
6833;BME280;3454;42.654;23.378;2023-01-27T07:58:52;93568.94;;;0.98;100.00
6833;BME280;3454;42.654;23.378;2023-01-27T08:01:18;93564.31;;;0.92;100.00
6833;BME280;3454;42.654;23.378;2023-01-27T08:03:44;93544.72;;;0.86;100.00
6833;BME280;3454;42.654;23.378;2023-01-27T08:06:11;93564.72;;;0.99;100.00
6833;BME280;3454;42.654;23.378;2023-01-27T08:08:37;93570.91;;;0.93;100.00
6833;BME280;3454;42.654;23.378;2023-01-27T08:11:04;93546.63;;;0.82;100.00
6833;BME280;3454;42.654;23.378;2023-01-27T08:13:32;93565.91;;;1.31;100.00
6833;BME280;3454;42.654;23.378;2023-01-27T08:15:58;93562.69;;;1.41;100.00
6833;BME280;3454;42.654;23.378;2023-01-27T08:18:25;93557.31;;;1.22;100.00
6833;BME280;3454;42.654;23.378;2023-01-27T08:20:52;93548.56;;;1.28;100.00
6833;BME280;3454;42.654;23.378;2023-01-27T08:23:20;93547.75;;;1.40;100.00
6833;BME280;3454;42.654;23.378;2023-01-27T08:25:54;93563.28;;;1.32;100.00
6833;BME280;3454;42.654;23.378;2023-01-27T08:28:21;93573.41;;;1.18;100.00
6833;BME280;3454;42.654;23.378;2023-01-27T08:30:47;93566.97;;;1.52;100.00
6833;BME280;3454;42.654;23.378;2023-01-27T08:33:15;93573.88;;;1.48;100.00
6833;BME280;3454;42.654;23.378;2023-01-27T08:35:40;93582.22;;;1.36;100.00
6833;BME280;3454;42.654;23.378;2023-01-27T08:38:09;93571.31;;;1.12;100.00
6833;BME280;3454;42.654;23.378;2023-01-27T08:40:41;93576.63;;;1.20;100.00
6833;BME280;3454;42.654;23.378;2023-01-27T08:43:07;93588.53;;;1.17;100.00
6833;BME280;3454;42.654;23.378;2023-01-27T08:45:33;93578.53;;;1.04;100.00
6833;BME280;3454;42.654;23.378;2023-01-27T08:48:00;93567.50;;;1.19;100.00
6833;BME280;3454;42.654;23.378;2023-01-27T08:50:25;93584.31;;;1.17;100.00
6833;BME280;3454;42.654;23.378;2023-01-27T08:52:52;93583.44;;;1.18;100.00
6833;BME280;3454;42.654;23.378;2023-01-27T08:55:17;93583.81;;;1.37;100.00
6833;BME280;3454;42.654;23.378;2023-01-27T08:57:43;93561.88;;;1.53;100.00
6833;BME280;3454;42.654;23.378;2023-01-27T09:00:09;93591.56;;;1.70;100.00
6833;BME280;3454;42.654;23.378;2023-01-27T09:02:40;93586.22;;;1.39;100.00
6833;BME280;3454;42.654;23.378;2023-01-27T09:05:05;93587.63;;;1.30;100.00
6833;BME280;3454;42.654;23.378;2023-01-27T09:07:31;93585.41;;;1.26;100.00
6833;BME280;3454;42.654;23.378;2023-01-27T09:09:58;93562.13;;;1.00;100.00
6833;BME280;3454;42.654;23.378;2023-01-27T09:12:23;93552.28;;;1.22;100.00
6833;BME280;3454;42.654;23.378;2023-01-27T09:14:49;93581.91;;;1.03;100.00
6833;BME280;3454;42.654;23.378;2023-01-27T09:17:14;93572.72;;;0.91;100.00
6833;BME280;3454;42.654;23.378;2023-01-27T09:19:44;93583.72;;;1.01;100.00
6833;BME280;3454;42.654;23.378;2023-01-27T09:22:09;93555.94;;;0.80;100.00
6833;BME280;3454;42.654;23.378;2023-01-27T09:24:34;93543.50;;;0.79;100.00
6833;BME280;3454;42.654;23.378;2023-01-27T09:27:00;93559.00;;;1.09;100.00
6833;BME280;3454;42.654;23.378;2023-01-27T09:29:25;93578.13;;;0.98;100.00
6833;BME280;3454;42.654;23.378;2023-01-27T09:31:51;93536.50;;;0.84;100.00
6833;BME280;3454;42.654;23.378;2023-01-27T09:34:16;93556.41;;;0.73;100.00
6833;BME280;3454;42.654;23.378;2023-01-27T09:36:46;93542.09;;;0.50;100.00
6833;BME280;3454;42.654;23.378;2023-01-27T09:39:14;93533.50;;;0.54;100.00
6833;BME280;3454;42.654;23.378;2023-01-27T09:47:23;93523.69;;;0.63;100.00
6833;BME280;3454;42.654;23.378;2023-01-27T09:49:54;93533.50;;;0.66;100.00
6833;BME280;3454;42.654;23.378;2023-01-27T09:52:28;93534.06;;;0.45;100.00
6833;BME280;3454;42.654;23.378;2023-01-27T09:55:09;93530.31;;;0.52;100.00
6833;BME280;3454;42.654;23.378;2023-01-27T09:58:02;93518.91;;;0.60;100.00
6833;BME280;3454;42.654;23.378;2023-01-27T10:15:20;93515.00;;;0.69;100.00
6833;BME280;3454;42.654;23.378;2023-01-27T10:26:08;93512.09;;;1.00;100.00
6833;BME280;3454;42.654;23.378;2023-01-27T10:28:41;93512.91;;;0.88;100.00
6833;BME280;3454;42.654;23.378;2023-01-27T10:31:22;93510.28;;;0.90;100.00
6833;BME280;3454;42.654;23.378;2023-01-27T10:33:55;93513.28;;;1.07;100.00
6833;BME280;3454;42.654;23.378;2023-01-27T10:36:36;93505.69;;;0.83;100.00
6833;BME280;3454;42.654;23.378;2023-01-27T10:39:19;93498.50;;;0.54;100.00
6833;BME280;3454;42.654;23.378;2023-01-27T10:50:16;93491.38;;;0.73;100.00
6833;BME280;3454;42.654;23.378;2023-01-27T10:52:54;93499.69;;;0.73;100.00
6833;BME280;3454;42.654;23.378;2023-01-27T10:55:25;93498.59;;;0.90;100.00
6833;BME280;3454;42.654;23.378;2023-01-27T10:57:56;93505.00;;;0.81;100.00
6833;BME280;3454;42.654;23.378;2023-01-27T11:00:51;93506.50;;;0.84;100.00
6833;BME280;3454;42.654;23.378;2023-01-27T11:03:25;93502.78;;;0.77;100.00
6833;BME280;3454;42.654;23.378;2023-01-27T11:05:59;93503.88;;;0.73;100.00
6833;BME280;3454;42.654;23.378;2023-01-27T11:08:33;93493.09;;;0.85;100.00
6833;BME280;3454;42.654;23.378;2023-01-27T11:11:04;93496.09;;;0.65;100.00
6833;BME280;3454;42.654;23.378;2023-01-27T11:13:51;93481.59;;;0.70;100.00
6833;BME280;3454;42.654;23.378;2023-01-27T11:16:30;93482.78;;;5.00;100.00
6833;BME280;3454;42.654;23.378;2023-01-27T11:18:59;93475.41;;;7.01;100.00
6833;BME280;3454;42.654;23.378;2023-01-27T11:21:30;93494.97;;;7.36;100.00
6833;BME280;3454;42.654;23.378;2023-01-27T11:23:58;93588.44;;;4.07;100.00
6833;BME280;3454;42.654;23.378;2023-01-27T11:26:38;93475.53;;;3.07;100.00
6833;BME280;3454;42.654;23.378;2023-01-27T11:29:26;93476.59;;;2.02;100.00
6833;BME280;3454;42.654;23.378;2023-01-27T11:32:09;93472.47;;;1.66;100.00
6833;BME280;3454;42.654;23.378;2023-01-27T11:37:22;93455.97;;;1.28;100.00
6833;BME280;3454;42.654;23.378;2023-01-27T11:39:49;93474.50;;;1.25;100.00
6833;BME280;3454;42.654;23.378;2023-01-27T11:42:15;93470.56;;;1.10;100.00
6833;BME280;3454;42.654;23.378;2023-01-27T11:44:41;93475.25;;;1.02;100.00
6833;BME280;3454;42.654;23.378;2023-01-27T11:50:17;93454.44;;;1.02;100.00
6833;BME280;3454;42.654;23.378;2023-01-27T11:52:47;93465.50;;;0.87;100.00
6833;BME280;3454;42.654;23.378;2023-01-27T11:55:22;93468.59;;;0.90;100.00
6833;BME280;3454;42.654;23.378;2023-01-27T11:57:56;93469.69;;;0.86;100.00
6833;BME280;3454;42.654;23.378;2023-01-27T12:00:57;93473.28;;;0.82;100.00
6833;BME280;3454;42.654;23.378;2023-01-27T12:03:34;93467.19;;;0.86;100.00
6833;BME280;3454;42.654;23.378;2023-01-27T12:06:46;93463.06;;;0.85;100.00
6833;BME280;3454;42.654;23.378;2023-01-27T12:09:39;93466.19;;;0.76;100.00
6833;BME280;3454;42.654;23.378;2023-01-27T12:14:48;93455.53;;;1.10;100.00
6833;BME280;3454;42.654;23.378;2023-01-27T12:17:19;93472.94;;;1.12;100.00
6833;BME280;3454;42.654;23.378;2023-01-27T12:19:47;93475.38;;;0.88;100.00
6833;BME280;3454;42.654;23.378;2023-01-27T12:22:25;93443.75;;;0.87;100.00
6833;BME280;3454;42.654;23.378;2023-01-27T12:24:55;93471.88;;;0.91;100.00
6833;BME280;3454;42.654;23.378;2023-01-27T12:27:24;93483.34;;;1.06;100.00
6833;BME280;3454;42.654;23.378;2023-01-27T12:29:54;93469.44;;;1.14;100.00
6833;BME280;3454;42.654;23.378;2023-01-27T12:32:33;93476.16;;;1.01;100.00
6833;BME280;3454;42.654;23.378;2023-01-27T12:35:00;93474.47;;;0.89;100.00
6833;BME280;3454;42.654;23.378;2023-01-27T12:37:30;93467.59;;;0.93;100.00
6833;BME280;3454;42.654;23.378;2023-01-27T12:39:58;93451.66;;;0.94;100.00
6833;BME280;3454;42.654;23.378;2023-01-27T12:42:34;93468.19;;;0.96;100.00
6833;BME280;3454;42.654;23.378;2023-01-27T12:45:28;93464.56;;;0.88;100.00
6833;BME280;3454;42.654;23.378;2023-01-27T12:50:31;93453.28;;;0.82;100.00
6833;BME280;3454;42.654;23.378;2023-01-27T12:53:13;93462.31;;;0.72;100.00
6833;BME280;3454;42.654;23.378;2023-01-27T12:55:43;93456.91;;;0.65;100.00
6833;BME280;3454;42.654;23.378;2023-01-27T12:58:34;93466.59;;;0.70;100.00
6833;BME280;3454;42.654;23.378;2023-01-27T13:04:22;93458.66;;;1.01;100.00
6833;BME280;3454;42.654;23.378;2023-01-27T13:07:03;93463.97;;;0.97;100.00
6833;BME280;3454;42.654;23.378;2023-01-27T13:12:23;93468.06;;;0.85;100.00
6833;BME280;3454;42.654;23.378;2023-01-27T13:14:52;93404.22;;;0.68;100.00
6833;BME280;3454;42.654;23.378;2023-01-27T13:20:03;93457.78;;;0.90;100.00
6833;BME280;3454;42.654;23.378;2023-01-27T13:22:39;93467.59;;;0.80;100.00
6833;BME280;3454;42.654;23.378;2023-01-27T13:25:15;93459.47;;;0.89;100.00
6833;BME280;3454;42.654;23.378;2023-01-27T13:27:43;93464.56;;;1.00;100.00
6833;BME280;3454;42.654;23.378;2023-01-27T13:30:35;93471.78;;;0.92;100.00
6833;BME280;3454;42.654;23.378;2023-01-27T13:33:29;93453.28;;;0.82;100.00
6833;BME280;3454;42.654;23.378;2023-01-27T13:36:02;93459.50;;;0.64;100.00
6833;BME280;3454;42.654;23.378;2023-01-27T13:41:17;93471.38;;;0.85;100.00
6833;BME280;3454;42.654;23.378;2023-01-27T13:43:52;93469.75;;;0.97;100.00
6833;BME280;3454;42.654;23.378;2023-01-27T13:46:39;93480.16;;;1.04;100.00
6833;BME280;3454;42.654;23.378;2023-01-27T13:49:24;93475.69;;;0.96;100.00
6833;BME280;3454;42.654;23.378;2023-01-27T13:51:53;93482.06;;;1.00;100.00
6833;BME280;3454;42.654;23.378;2023-01-27T13:54:19;93477.59;;;0.93;100.00
6833;BME280;3454;42.654;23.378;2023-01-27T14:05:37;93487.50;;;0.69;100.00
6833;BME280;3454;42.654;23.378;2023-01-27T14:14:03;93492.78;;;0.90;100.00
6833;BME280;3454;42.654;23.378;2023-01-27T14:22:06;93503.50;;;0.92;100.00
6833;BME280;3454;42.654;23.378;2023-01-27T14:27:28;93507.59;;;0.80;100.00
6833;BME280;3454;42.654;23.378;2023-01-27T14:30:20;93512.19;;;0.86;100.00
6833;BME280;3454;42.654;23.378;2023-01-27T14:33:11;93504.50;;;0.76;100.00
6833;BME280;3454;42.654;23.378;2023-01-27T14:35:49;93514.50;;;0.76;100.00
6833;BME280;3454;42.654;23.378;2023-01-27T14:48:51;93514.41;;;0.91;100.00
6833;BME280;3454;42.654;23.378;2023-01-27T15:10:34;93535.41;;;0.75;100.00
6833;BME280;3454;42.654;23.378;2023-01-27T15:16:12;93533.31;;;0.69;100.00
6833;BME280;3454;42.654;23.378;2023-01-27T15:26:52;93548.91;;;0.73;100.00
6833;BME280;3454;42.654;23.378;2023-01-27T15:29:24;93519.69;;;0.61;100.00
6833;BME280;3454;42.654;23.378;2023-01-27T15:32:09;93548.72;;;0.76;100.00
6833;BME280;3454;42.654;23.378;2023-01-27T15:34:36;93552.81;;;0.90;100.00